sensor_id;sensor_type;location;lat;lon;timestamp;pressure;altitude;pressure_sealevel;temperature;humidity
33913;BME280;20200;52.084;5.224;2023-02-02T00:00:21;153132.0;;;17.34;44.83
33913;BME280;20200;52.084;5.224;2023-02-02T00:03:36;153237.0;;;17.77;44.11
33913;BME280;20200;52.084;5.224;2023-02-02T00:05:13;153214.0;;;17.66;44.47
33913;BME280;20200;52.084;5.224;2023-02-02T00:06:50;153125.0;;;17.31;44.84
33913;BME280;20200;52.084;5.224;2023-02-02T00:10:04;153153.0;;;17.43;44.49
33913;BME280;20200;52.084;5.224;2023-02-02T00:11:41;153198.0;;;17.61;44.5
33913;BME280;20200;52.084;5.224;2023-02-02T00:13:20;153247.0;;;17.79;43.83
33913;BME280;20200;52.084;5.224;2023-02-02T00:14:55;153343.0;;;18.18;42.89
33913;BME280;20200;52.084;5.224;2023-02-02T00:18:13;153154.0;;;17.43;44.09
33913;BME280;20200;52.084;5.224;2023-02-02T00:19:49;153116.0;;;17.27;44.44
33913;BME280;20200;52.084;5.224;2023-02-02T00:21:26;153339.0;;;18.16;43.21
33913;BME280;20200;52.084;5.224;2023-02-02T00:24:39;153312.0;;;18.05;43.47
33913;BME280;20200;52.084;5.224;2023-02-02T00:26:16;153096.0;;;17.2;44.68
33913;BME280;20200;52.084;5.224;2023-02-02T00:27:53;153056.0;;;17.04;45.53
33913;BME280;20200;52.084;5.224;2023-02-02T00:29:30;153153.0;;;17.43;44.88
33913;BME280;20200;52.084;5.224;2023-02-02T00:32:43;153402.0;;;18.41;43.22
33913;BME280;20200;52.084;5.224;2023-02-02T00:34:24;153199.0;;;17.61;44.12
33913;BME280;20200;52.084;5.224;2023-02-02T00:36:01;153083.0;;;17.14;46.15
33913;BME280;20200;52.084;5.224;2023-02-02T00:39:16;153220.0;;;17.7;44.67
33913;BME280;20200;52.084;5.224;2023-02-02T00:40:53;153085.0;;;17.16;46.09
33913;BME280;20200;52.084;5.224;2023-02-02T00:42:29;153130.0;;;17.34;46.03
33913;BME280;20200;52.084;5.224;2023-02-02T00:47:01;153037.0;;;16.96;46.97
33913;BME280;20200;52.084;5.224;2023-02-02T00:48:37;153044.0;;;17.0;46.38
33913;BME280;20200;52.084;5.224;2023-02-02T00:51:54;153020.0;;;16.89;46.7
33913;BME280;20200;52.084;5.224;2023-02-02T00:53:31;152964.0;;;16.68;46.96
33913;BME280;20200;52.084;5.224;2023-02-02T00:55:08;153105.0;;;17.23;46.09
33913;BME280;20200;52.084;5.224;2023-02-02T00:56:45;153128.0;;;17.32;45.34
33913;BME280;20200;52.084;5.224;2023-02-02T00:59:58;152867.0;;;16.28;47.3
33913;BME280;20200;52.084;5.224;2023-02-02T01:01:35;153195.0;;;17.59;44.75
33913;BME280;20200;52.084;5.224;2023-02-02T01:03:12;153018.0;;;16.89;45.64
33913;BME280;20200;52.084;5.224;2023-02-02T01:06:24;153230.0;;;17.73;43.94
33913;BME280;20200;52.084;5.224;2023-02-02T01:08:00;152960.0;;;16.65;46.1
33913;BME280;20200;52.084;5.224;2023-02-02T01:09:37;152836.0;;;16.16;46.95
33913;BME280;20200;52.084;5.224;2023-02-02T01:12:50;152848.0;;;16.21;46.75
33913;BME280;20200;52.084;5.224;2023-02-02T01:14:27;152910.0;;;16.46;46.21
33913;BME280;20200;52.084;5.224;2023-02-02T01:16:05;152941.0;;;16.59;45.95
33913;BME280;20200;52.084;5.224;2023-02-02T01:17:41;152776.0;;;15.92;47.56
33913;BME280;20200;52.084;5.224;2023-02-02T01:20:56;152784.0;;;15.95;48.09
33913;BME280;20200;52.084;5.224;2023-02-02T01:22:33;152949.0;;;16.61;46.16
33913;BME280;20200;52.084;5.224;2023-02-02T01:24:10;153042.0;;;16.98;45.41
33913;BME280;20200;52.084;5.224;2023-02-02T01:27:28;153005.0;;;16.84;46.18
33913;BME280;20200;52.084;5.224;2023-02-02T01:29:04;153210.0;;;17.66;44.6
33913;BME280;20200;52.084;5.224;2023-02-02T01:30:41;153026.0;;;16.93;45.97
33913;BME280;20200;52.084;5.224;2023-02-02T01:32:17;152917.0;;;16.48;46.74
33913;BME280;20200;52.084;5.224;2023-02-02T01:35:29;153084.0;;;17.14;45.24
33913;BME280;20200;52.084;5.224;2023-02-02T01:37:05;153019.0;;;16.89;45.66
33913;BME280;20200;52.084;5.224;2023-02-02T01:38:41;153069.0;;;17.09;45.5
33913;BME280;20200;52.084;5.224;2023-02-02T01:41:54;153100.0;;;17.21;45.5
33913;BME280;20200;52.084;5.224;2023-02-02T01:43:50;153155.0;;;17.43;45.18
33913;BME280;20200;52.084;5.224;2023-02-02T01:45:28;153102.0;;;17.22;45.44
33913;BME280;20200;52.084;5.224;2023-02-02T01:47:05;153270.0;;;17.89;44.4
33913;BME280;20200;52.084;5.224;2023-02-02T01:50:30;153176.0;;;17.52;45.14
33913;BME280;20200;52.084;5.224;2023-02-02T01:52:09;153114.0;;;17.27;45.28
33913;BME280;20200;52.084;5.224;2023-02-02T01:53:51;153445.0;;;18.59;43.2
33913;BME280;20200;52.084;5.224;2023-02-02T01:55:30;153208.0;;;17.64;44.31
33913;BME280;20200;52.084;5.224;2023-02-02T01:58:50;153317.0;;;18.07;44.07
33913;BME280;20200;52.084;5.224;2023-02-02T02:00:27;153175.0;;;17.52;45.3
33913;BME280;20200;52.084;5.224;2023-02-02T02:02:05;153326.0;;;18.11;44.28
33913;BME280;20200;52.084;5.224;2023-02-02T02:03:41;153568.0;;;19.07;42.66
33913;BME280;20200;52.084;5.224;2023-02-02T02:07:04;153484.0;;;18.73;42.54
33913;BME280;20200;52.084;5.224;2023-02-02T02:08:59;153191.0;;;17.57;45.42
33913;BME280;20200;52.084;5.224;2023-02-02T02:10:36;153316.0;;;18.07;44.51
33913;BME280;20200;52.084;5.224;2023-02-02T02:12:14;153327.0;;;18.11;44.44
33913;BME280;20200;52.084;5.224;2023-02-02T02:18:09;153350.0;;;18.2;44.5
33913;BME280;20200;52.084;5.224;2023-02-02T02:28:33;153125.0;;;17.31;45.87
33913;BME280;20200;52.084;5.224;2023-02-02T02:31:45;153082.0;;;17.14;46.16
33913;BME280;20200;52.084;5.224;2023-02-02T02:34:34;153182.0;;;17.53;44.93
33913;BME280;20200;52.084;5.224;2023-02-02T02:36:24;153323.0;;;18.11;44.05
33913;BME280;20200;52.084;5.224;2023-02-02T02:38:13;153293.0;;;17.98;43.99
33913;BME280;20200;52.084;5.224;2023-02-02T02:39:56;153028.0;;;16.93;46.1
33913;BME280;20200;52.084;5.224;2023-02-02T02:41:38;153114.0;;;17.27;45.52
33913;BME280;20200;52.084;5.224;2023-02-02T02:45:03;153260.0;;;17.84;44.25
33913;BME280;20200;52.084;5.224;2023-02-02T02:46:41;153107.0;;;17.25;45.39
33913;BME280;20200;52.084;5.224;2023-02-02T02:48:19;153255.0;;;17.82;44.37
33913;BME280;20200;52.084;5.224;2023-02-02T02:49:55;153071.0;;;17.11;45.37
33913;BME280;20200;52.084;5.224;2023-02-02T02:53:25;153105.0;;;17.23;45.15
33913;BME280;20200;52.084;5.224;2023-02-02T02:55:02;153053.0;;;17.03;45.34
33913;BME280;20200;52.084;5.224;2023-02-02T02:57:52;153247.0;;;17.79;44.46
33913;BME280;20200;52.084;5.224;2023-02-02T02:59:35;153228.0;;;17.72;43.79
33913;BME280;20200;52.084;5.224;2023-02-02T03:01:33;153143.0;;;17.38;44.52
33913;BME280;20200;52.084;5.224;2023-02-02T03:03:17;153069.0;;;17.09;45.25
33913;BME280;20200;52.084;5.224;2023-02-02T03:05:07;153055.0;;;17.03;45.44
33913;BME280;20200;52.084;5.224;2023-02-02T03:06:51;153066.0;;;17.09;45.36
33913;BME280;20200;52.084;5.224;2023-02-02T03:08:31;152964.0;;;16.68;45.91
33913;BME280;20200;52.084;5.224;2023-02-02T03:11:54;153098.0;;;17.2;44.78
33913;BME280;20200;52.084;5.224;2023-02-02T03:13:31;153194.0;;;17.59;44.21
33913;BME280;20200;52.084;5.224;2023-02-02T03:15:08;153085.0;;;17.16;45.09
33913;BME280;20200;52.084;5.224;2023-02-02T03:18:24;152980.0;;;16.75;45.83
33913;BME280;20200;52.084;5.224;2023-02-02T03:20:02;153357.0;;;18.23;42.79
33913;BME280;20200;52.084;5.224;2023-02-02T03:21:39;152816.0;;;16.09;47.21
33913;BME280;20200;52.084;5.224;2023-02-02T03:23:15;152961.0;;;16.66;45.77
33913;BME280;20200;52.084;5.224;2023-02-02T03:26:29;153126.0;;;17.31;44.68
33913;BME280;20200;52.084;5.224;2023-02-02T03:28:05;153073.0;;;17.11;45.02
33913;BME280;20200;52.084;5.224;2023-02-02T03:29:42;153079.0;;;17.13;44.9
33913;BME280;20200;52.084;5.224;2023-02-02T03:32:55;153122.0;;;17.3;44.6
33913;BME280;20200;52.084;5.224;2023-02-02T03:34:31;153094.0;;;17.2;45.04
33913;BME280;20200;52.084;5.224;2023-02-02T03:36:08;153067.0;;;17.09;45.12
33913;BME280;20200;52.084;5.224;2023-02-02T03:39:21;152849.0;;;16.21;46.83
33913;BME280;20200;52.084;5.224;2023-02-02T03:40:58;153066.0;;;17.09;44.96
33913;BME280;20200;52.084;5.224;2023-02-02T03:42:34;152854.0;;;16.23;47.07
33913;BME280;20200;52.084;5.224;2023-02-02T03:44:10;153038.0;;;16.96;45.31
33913;BME280;20200;52.084;5.224;2023-02-02T03:47:22;153102.0;;;17.22;44.82
33913;BME280;20200;52.084;5.224;2023-02-02T03:48:58;153119.0;;;17.29;44.86
33913;BME280;20200;52.084;5.224;2023-02-02T03:50:35;153041.0;;;16.98;45.59
33913;BME280;20200;52.084;5.224;2023-02-02T03:53:48;153236.0;;;17.75;43.55
33913;BME280;20200;52.084;5.224;2023-02-02T03:55:25;153021.0;;;16.9;45.27
33913;BME280;20200;52.084;5.224;2023-02-02T03:57:01;153092.0;;;17.18;44.75
33913;BME280;20200;52.084;5.224;2023-02-02T04:00:13;153134.0;;;17.34;44.84
33913;BME280;20200;52.084;5.224;2023-02-02T04:01:50;153125.0;;;17.31;44.48
33913;BME280;20200;52.084;5.224;2023-02-02T04:03:26;152968.0;;;16.68;45.63
33913;BME280;20200;52.084;5.224;2023-02-02T04:05:03;153102.0;;;17.22;44.67
33913;BME280;20200;52.084;5.224;2023-02-02T04:08:16;153266.0;;;17.87;43.38
33913;BME280;20200;52.084;5.224;2023-02-02T04:09:52;153168.0;;;17.48;43.92
33913;BME280;20200;52.084;5.224;2023-02-02T04:11:28;153428.0;;;18.52;42.48
33913;BME280;20200;52.084;5.224;2023-02-02T04:14:40;153173.0;;;17.5;43.85
33913;BME280;20200;52.084;5.224;2023-02-02T04:16:16;153191.0;;;17.57;43.87
33913;BME280;20200;52.084;5.224;2023-02-02T04:17:52;153246.0;;;17.79;43.17
33913;BME280;20200;52.084;5.224;2023-02-02T04:21:05;153192.0;;;17.59;43.39
33913;BME280;20200;52.084;5.224;2023-02-02T04:22:43;153228.0;;;17.72;43.26
33913;BME280;20200;52.084;5.224;2023-02-02T04:24:20;153234.0;;;17.75;43.06
33913;BME280;20200;52.084;5.224;2023-02-02T04:25:58;153173.0;;;17.5;43.64
33913;BME280;20200;52.084;5.224;2023-02-02T04:29:10;153182.0;;;17.53;43.93
33913;BME280;20200;52.084;5.224;2023-02-02T04:30:47;153327.0;;;18.11;42.94
33913;BME280;20200;52.084;5.224;2023-02-02T04:32:23;153182.0;;;17.54;43.4
33913;BME280;20200;52.084;5.224;2023-02-02T04:35:36;153157.0;;;17.45;43.76
33913;BME280;20200;52.084;5.224;2023-02-02T04:37:12;153202.0;;;17.62;43.5
33913;BME280;20200;52.084;5.224;2023-02-02T04:38:48;153284.0;;;17.95;42.89
33913;BME280;20200;52.084;5.224;2023-02-02T04:42:02;153105.0;;;17.23;44.52
33913;BME280;20200;52.084;5.224;2023-02-02T04:43:39;153200.0;;;17.61;43.79
33913;BME280;20200;52.084;5.224;2023-02-02T04:45:15;153255.0;;;17.82;43.32
33913;BME280;20200;52.084;5.224;2023-02-02T04:46:52;153237.0;;;17.75;43.5
33913;BME280;20200;52.084;5.224;2023-02-02T04:50:05;153113.0;;;17.27;44.14
33913;BME280;20200;52.084;5.224;2023-02-02T04:51:43;153292.0;;;17.97;43.24
33913;BME280;20200;52.084;5.224;2023-02-02T04:53:19;153442.0;;;18.57;41.88
33913;BME280;20200;52.084;5.224;2023-02-02T04:56:32;153283.0;;;17.95;42.75
33913;BME280;20200;52.084;5.224;2023-02-02T04:58:09;153286.0;;;17.95;42.83
33913;BME280;20200;52.084;5.224;2023-02-02T04:59:45;153234.0;;;17.75;43.13
33913;BME280;20200;52.084;5.224;2023-02-02T05:02:59;153384.0;;;18.34;42.22
33913;BME280;20200;52.084;5.224;2023-02-02T05:04:35;153173.0;;;17.5;43.94
33913;BME280;20200;52.084;5.224;2023-02-02T05:06:11;153409.0;;;18.45;42.21
33913;BME280;20200;52.084;5.224;2023-02-02T05:07:48;153124.0;;;17.31;44.47
33913;BME280;20200;52.084;5.224;2023-02-02T05:11:05;153246.0;;;17.79;43.44
33913;BME280;20200;52.084;5.224;2023-02-02T05:12:42;153086.0;;;17.16;44.77
33913;BME280;20200;52.084;5.224;2023-02-02T05:14:19;153259.0;;;17.84;43.35
33913;BME280;20200;52.084;5.224;2023-02-02T05:17:31;153200.0;;;17.61;43.95
33913;BME280;20200;52.084;5.224;2023-02-02T05:19:10;153032.0;;;16.95;45.13
33913;BME280;20200;52.084;5.224;2023-02-02T05:20:48;153062.0;;;17.06;45.06
33913;BME280;20200;52.084;5.224;2023-02-02T05:22:26;153058.0;;;17.04;44.77
33913;BME280;20200;52.084;5.224;2023-02-02T05:25:39;153181.0;;;17.53;43.98
33913;BME280;20200;52.084;5.224;2023-02-02T05:27:15;153122.0;;;17.3;44.37
33913;BME280;20200;52.084;5.224;2023-02-02T05:28:51;153155.0;;;17.43;44.11
33913;BME280;20200;52.084;5.224;2023-02-02T05:32:04;153055.0;;;17.03;45.21
33913;BME280;20200;52.084;5.224;2023-02-02T05:33:41;153163.0;;;17.46;44.29
33913;BME280;20200;52.084;5.224;2023-02-02T05:35:17;153168.0;;;17.48;44.24
33913;BME280;20200;52.084;5.224;2023-02-02T05:38:30;152994.0;;;16.79;45.42
33913;BME280;20200;52.084;5.224;2023-02-02T05:40:09;153254.0;;;17.82;43.71
33913;BME280;20200;52.084;5.224;2023-02-02T05:41:45;153145.0;;;17.39;44.26
33913;BME280;20200;52.084;5.224;2023-02-02T05:43:23;153339.0;;;18.16;42.9
33913;BME280;20200;52.084;5.224;2023-02-02T05:46:37;153252.0;;;17.81;43.32
33913;BME280;20200;52.084;5.224;2023-02-02T05:48:13;153145.0;;;17.39;44.41
33913;BME280;20200;52.084;5.224;2023-02-02T05:49:49;153203.0;;;17.62;43.66
33913;BME280;20200;52.084;5.224;2023-02-02T05:53:07;153459.0;;;18.64;42.2
33913;BME280;20200;52.084;5.224;2023-02-02T05:54:43;153125.0;;;17.31;44.56
33913;BME280;20200;52.084;5.224;2023-02-02T05:56:20;153214.0;;;17.66;44.28
33913;BME280;20200;52.084;5.224;2023-02-02T05:57:56;153211.0;;;17.66;43.68
33913;BME280;20200;52.084;5.224;2023-02-02T06:01:07;153166.0;;;17.47;44.26
33913;BME280;20200;52.084;5.224;2023-02-02T06:02:44;153084.0;;;17.14;45.16
33913;BME280;20200;52.084;5.224;2023-02-02T06:04:21;153171.0;;;17.5;44.88
33913;BME280;20200;52.084;5.224;2023-02-02T06:07:34;153262.0;;;17.86;44.02
33913;BME280;20200;52.084;5.224;2023-02-02T06:09:10;153121.0;;;17.3;45.32
33913;BME280;20200;52.084;5.224;2023-02-02T06:10:46;153346.0;;;18.2;43.16
33913;BME280;20200;52.084;5.224;2023-02-02T06:13:59;153427.0;;;18.52;42.64
33913;BME280;20200;52.084;5.224;2023-02-02T06:15:35;153461.0;;;18.64;42.78
33913;BME280;20200;52.084;5.224;2023-02-02T06:17:12;153330.0;;;18.12;43.12
33913;BME280;20200;52.084;5.224;2023-02-02T06:20:25;153218.0;;;17.68;44.22
33913;BME280;20200;52.084;5.224;2023-02-02T06:22:02;153334.0;;;18.14;43.74
33913;BME280;20200;52.084;5.224;2023-02-02T06:23:44;153271.0;;;17.89;44.02
33913;BME280;20200;52.084;5.224;2023-02-02T06:25:21;153307.0;;;18.03;44.1
33913;BME280;20200;52.084;5.224;2023-02-02T06:28:34;153002.0;;;16.82;46.47
33913;BME280;20200;52.084;5.224;2023-02-02T06:30:12;153360.0;;;18.25;43.97
33913;BME280;20200;52.084;5.224;2023-02-02T06:31:49;153303.0;;;18.02;44.21
33913;BME280;20200;52.084;5.224;2023-02-02T06:35:02;153448.0;;;18.59;43.0
33913;BME280;20200;52.084;5.224;2023-02-02T06:36:40;153157.0;;;17.43;45.32
33913;BME280;20200;52.084;5.224;2023-02-02T06:38:18;153352.0;;;18.21;43.74
33913;BME280;20200;52.084;5.224;2023-02-02T06:39:54;153318.0;;;18.07;44.68
33913;BME280;20200;52.084;5.224;2023-02-02T06:43:08;153082.0;;;17.14;46.28
33913;BME280;20200;52.084;5.224;2023-02-02T06:44:44;153246.0;;;17.79;44.78
33913;BME280;20200;52.084;5.224;2023-02-02T06:46:21;153356.0;;;18.23;44.12
33913;BME280;20200;52.084;5.224;2023-02-02T06:49:36;153278.0;;;17.93;44.27
33913;BME280;20200;52.084;5.224;2023-02-02T06:51:13;153232.0;;;17.75;44.9
33913;BME280;20200;52.084;5.224;2023-02-02T06:52:50;153295.0;;;17.98;45.0
33913;BME280;20200;52.084;5.224;2023-02-02T06:54:26;153082.0;;;17.14;46.46
33913;BME280;20200;52.084;5.224;2023-02-02T06:57:41;153111.0;;;17.25;46.16
33913;BME280;20200;52.084;5.224;2023-02-02T06:59:19;153109.0;;;17.25;46.14
33913;BME280;20200;52.084;5.224;2023-02-02T07:01:00;153023.0;;;16.91;47.27
33913;BME280;20200;52.084;5.224;2023-02-02T07:04:15;153161.0;;;17.45;45.77
33913;BME280;20200;52.084;5.224;2023-02-02T07:05:52;153050.0;;;17.02;46.66
33913;BME280;20200;52.084;5.224;2023-02-02T07:07:30;153023.0;;;16.9;47.63
33913;BME280;20200;52.084;5.224;2023-02-02T07:09:07;153049.0;;;17.02;47.57
33913;BME280;20200;52.084;5.224;2023-02-02T07:12:20;153110.0;;;17.25;46.76
33913;BME280;20200;52.084;5.224;2023-02-02T07:13:56;153103.0;;;17.22;46.63
33913;BME280;20200;52.084;5.224;2023-02-02T07:15:33;153123.0;;;17.3;46.74
33913;BME280;20200;52.084;5.224;2023-02-02T07:18:47;153180.0;;;17.53;46.32
33913;BME280;20200;52.084;5.224;2023-02-02T07:20:23;153157.0;;;17.43;46.5
33913;BME280;20200;52.084;5.224;2023-02-02T07:21:59;153106.0;;;17.23;46.76
33913;BME280;20200;52.084;5.224;2023-02-02T07:25:11;153084.0;;;17.14;47.18
33913;BME280;20200;52.084;5.224;2023-02-02T07:26:47;153248.0;;;17.8;45.99
33913;BME280;20200;52.084;5.224;2023-02-02T07:28:24;153436.0;;;18.54;44.06
33913;BME280;20200;52.084;5.224;2023-02-02T07:30:03;153189.0;;;17.56;46.38
33913;BME280;20200;52.084;5.224;2023-02-02T07:33:16;153189.0;;;17.56;46.07
33913;BME280;20200;52.084;5.224;2023-02-02T07:34:52;153034.0;;;16.95;47.2
33913;BME280;20200;52.084;5.224;2023-02-02T07:36:29;153069.0;;;17.09;46.88
33913;BME280;20200;52.084;5.224;2023-02-02T07:39:42;152923.0;;;16.52;47.83
33913;BME280;20200;52.084;5.224;2023-02-02T07:41:18;153228.0;;;17.72;45.45
33913;BME280;20200;52.084;5.224;2023-02-02T07:42:59;153037.0;;;16.96;46.71
33913;BME280;20200;52.084;5.224;2023-02-02T07:46:13;153191.0;;;17.57;45.99
33913;BME280;20200;52.084;5.224;2023-02-02T07:47:54;153102.0;;;17.22;46.13
33913;BME280;20200;52.084;5.224;2023-02-02T07:49:31;152979.0;;;16.73;47.04
33913;BME280;20200;52.084;5.224;2023-02-02T07:51:11;153162.0;;;17.46;45.43
33913;BME280;20200;52.084;5.224;2023-02-02T07:54:26;153279.0;;;17.93;44.5
33913;BME280;20200;52.084;5.224;2023-02-02T07:56:06;153287.0;;;17.95;44.69
33913;BME280;20200;52.084;5.224;2023-02-02T07:57:44;153216.0;;;17.68;44.96
33913;BME280;20200;52.084;5.224;2023-02-02T07:59:21;153280.0;;;17.93;44.32
33913;BME280;20200;52.084;5.224;2023-02-02T08:02:36;153100.0;;;17.21;45.72
33913;BME280;20200;52.084;5.224;2023-02-02T08:04:12;153182.0;;;17.53;44.69
33913;BME280;20200;52.084;5.224;2023-02-02T08:05:50;153039.0;;;16.97;45.83
33913;BME280;20200;52.084;5.224;2023-02-02T08:09:03;153053.0;;;17.02;45.63
33913;BME280;20200;52.084;5.224;2023-02-02T08:10:46;153185.0;;;17.55;44.46
33913;BME280;20200;52.084;5.224;2023-02-02T08:12:23;153096.0;;;17.2;45.25
33913;BME280;20200;52.084;5.224;2023-02-02T08:14:02;153064.0;;;17.07;45.18
33913;BME280;20200;52.084;5.224;2023-02-02T08:17:16;153151.0;;;17.41;45.1
33913;BME280;20200;52.084;5.224;2023-02-02T08:18:52;153013.0;;;16.87;45.56
33913;BME280;20200;52.084;5.224;2023-02-02T08:20:29;153297.0;;;18.0;43.43
33913;BME280;20200;52.084;5.224;2023-02-02T08:23:41;153253.0;;;17.82;43.94
33913;BME280;20200;52.084;5.224;2023-02-02T08:25:18;153093.0;;;17.18;45.22
33913;BME280;20200;52.084;5.224;2023-02-02T08:26:54;152986.0;;;16.77;45.58
33913;BME280;20200;52.084;5.224;2023-02-02T08:30:08;153119.0;;;17.28;45.59
33913;BME280;20200;52.084;5.224;2023-02-02T08:31:46;153047.0;;;17.0;45.08
33913;BME280;20200;52.084;5.224;2023-02-02T08:33:22;153240.0;;;17.77;43.97
33913;BME280;20200;52.084;5.224;2023-02-02T08:34:58;153292.0;;;17.97;43.79
33913;BME280;20200;52.084;5.224;2023-02-02T08:38:10;153196.0;;;17.59;43.86
33913;BME280;20200;52.084;5.224;2023-02-02T08:39:47;153037.0;;;16.96;44.91
33913;BME280;20200;52.084;5.224;2023-02-02T08:41:23;153096.0;;;17.2;45.04
33913;BME280;20200;52.084;5.224;2023-02-02T08:44:36;153277.0;;;17.91;43.6
33913;BME280;20200;52.084;5.224;2023-02-02T08:46:15;153286.0;;;17.95;43.36
33913;BME280;20200;52.084;5.224;2023-02-02T08:47:52;153253.0;;;17.82;43.79
33913;BME280;20200;52.084;5.224;2023-02-02T08:49:29;153254.0;;;17.82;43.72
33913;BME280;20200;52.084;5.224;2023-02-02T08:52:43;153127.0;;;17.32;44.6
33913;BME280;20200;52.084;5.224;2023-02-02T08:54:20;153277.0;;;17.91;43.64
33913;BME280;20200;52.084;5.224;2023-02-02T08:55:57;153156.0;;;17.43;44.22
33913;BME280;20200;52.084;5.224;2023-02-02T08:59:11;153135.0;;;17.36;44.77
33913;BME280;20200;52.084;5.224;2023-02-02T09:00:47;153057.0;;;17.04;44.94
33913;BME280;20200;52.084;5.224;2023-02-02T09:02:23;153434.0;;;18.53;42.71
33913;BME280;20200;52.084;5.224;2023-02-02T09:05:38;153354.0;;;18.22;43.14
33913;BME280;20200;52.084;5.224;2023-02-02T09:07:15;153248.0;;;17.8;43.51
33913;BME280;20200;52.084;5.224;2023-02-02T09:08:51;153171.0;;;17.5;44.16
33913;BME280;20200;52.084;5.224;2023-02-02T09:10:27;152975.0;;;16.72;45.84
33913;BME280;20200;52.084;5.224;2023-02-02T09:13:51;152983.0;;;16.75;45.86
33913;BME280;20200;52.084;5.224;2023-02-02T09:15:28;153404.0;;;18.43;42.89
33913;BME280;20200;52.084;5.224;2023-02-02T09:17:05;153324.0;;;18.11;43.37
33913;BME280;20200;52.084;5.224;2023-02-02T09:20:19;153117.0;;;17.28;45.01
33913;BME280;20200;52.084;5.224;2023-02-02T09:21:55;153054.0;;;17.03;45.52
33913;BME280;20200;52.084;5.224;2023-02-02T09:23:33;153201.0;;;17.61;44.37
33913;BME280;20200;52.084;5.224;2023-02-02T09:25:13;153262.0;;;17.86;44.21
33913;BME280;20200;52.084;5.224;2023-02-02T09:28:26;153130.0;;;17.34;44.8
33913;BME280;20200;52.084;5.224;2023-02-02T09:30:03;153167.0;;;17.48;44.81
33913;BME280;20200;52.084;5.224;2023-02-02T09:31:39;153157.0;;;17.45;44.9
33913;BME280;20200;52.084;5.224;2023-02-02T09:34:53;153284.0;;;17.95;43.63
33913;BME280;20200;52.084;5.224;2023-02-02T09:36:29;153299.0;;;18.0;43.87
33913;BME280;20200;52.084;5.224;2023-02-02T09:38:06;153053.0;;;17.02;45.48
33913;BME280;20200;52.084;5.224;2023-02-02T09:39:42;153377.0;;;18.31;43.22
33913;BME280;20200;52.084;5.224;2023-02-02T09:43:38;153198.0;;;17.61;44.51
33913;BME280;20200;52.084;5.224;2023-02-02T09:45:25;153122.0;;;17.3;45.61
33913;BME280;20200;52.084;5.224;2023-02-02T09:47:15;153347.0;;;18.2;43.69
33913;BME280;20200;52.084;5.224;2023-02-02T09:48:58;153375.0;;;18.3;43.03
33913;BME280;20200;52.084;5.224;2023-02-02T09:50:41;153407.0;;;18.43;43.49
33913;BME280;20200;52.084;5.224;2023-02-02T09:52:24;153044.0;;;17.0;45.46
33913;BME280;20200;52.084;5.224;2023-02-02T09:55:54;153234.0;;;17.75;44.88
33913;BME280;20200;52.084;5.224;2023-02-02T09:57:36;153423.0;;;18.5;43.28
33913;BME280;20200;52.084;5.224;2023-02-02T09:59:23;153328.0;;;18.11;44.21
33913;BME280;20200;52.084;5.224;2023-02-02T10:01:05;153293.0;;;17.98;43.89
33913;BME280;20200;52.084;5.224;2023-02-02T10:02:44;153284.0;;;17.95;44.16
33913;BME280;20200;52.084;5.224;2023-02-02T10:06:16;153264.0;;;17.86;44.62
33913;BME280;20200;52.084;5.224;2023-02-02T10:08:00;153166.0;;;17.47;45.09
33913;BME280;20200;52.084;5.224;2023-02-02T10:09:45;153413.0;;;18.45;43.77
33913;BME280;20200;52.084;5.224;2023-02-02T10:11:30;153245.0;;;17.78;44.52
33913;BME280;20200;52.084;5.224;2023-02-02T10:13:13;153202.0;;;17.62;45.49
33913;BME280;20200;52.084;5.224;2023-02-02T10:16:36;153241.0;;;17.77;44.46
33913;BME280;20200;52.084;5.224;2023-02-02T10:18:19;153198.0;;;17.61;44.74
33913;BME280;20200;52.084;5.224;2023-02-02T10:20:05;153225.0;;;17.71;44.65
33913;BME280;20200;52.084;5.224;2023-02-02T10:21:59;153141.0;;;17.37;45.22
33913;BME280;20200;52.084;5.224;2023-02-02T10:23:38;153429.0;;;18.52;43.54
33913;BME280;20200;52.084;5.224;2023-02-02T10:27:01;153338.0;;;18.16;43.8
33913;BME280;20200;52.084;5.224;2023-02-02T10:28:43;153280.0;;;17.93;44.52
33913;BME280;20200;52.084;5.224;2023-02-02T10:30:42;153358.0;;;18.23;43.47
33913;BME280;20200;52.084;5.224;2023-02-02T10:32:24;153287.0;;;17.95;44.2
33913;BME280;20200;52.084;5.224;2023-02-02T10:35:52;153253.0;;;17.82;44.16
33913;BME280;20200;52.084;5.224;2023-02-02T10:37:37;153541.0;;;18.96;42.31
33913;BME280;20200;52.084;5.224;2023-02-02T10:39:25;153348.0;;;18.2;43.45
33913;BME280;20200;52.084;5.224;2023-02-02T10:41:14;153239.0;;;17.77;44.36
33913;BME280;20200;52.084;5.224;2023-02-02T10:44:08;153490.0;;;18.77;42.49
33913;BME280;20200;52.084;5.224;2023-02-02T10:45:52;153493.0;;;18.77;42.71
33913;BME280;20200;52.084;5.224;2023-02-02T10:47:32;153243.0;;;17.78;44.31
33913;BME280;20200;52.084;5.224;2023-02-02T10:49:14;153391.0;;;18.36;43.27
33913;BME280;20200;52.084;5.224;2023-02-02T10:51:01;153653.0;;;19.41;41.77
33913;BME280;20200;52.084;5.224;2023-02-02T10:54:35;153524.0;;;18.89;42.41
33913;BME280;20200;52.084;5.224;2023-02-02T10:56:39;153398.0;;;18.39;43.08
33913;BME280;20200;52.084;5.224;2023-02-02T10:58:23;153533.0;;;18.93;41.69
33913;BME280;20200;52.084;5.224;2023-02-02T11:00:05;153281.0;;;17.93;43.43
33913;BME280;20200;52.084;5.224;2023-02-02T11:01:49;153362.0;;;18.25;43.2
33913;BME280;20200;52.084;5.224;2023-02-02T11:03:27;153509.0;;;18.84;41.67
33913;BME280;20200;52.084;5.224;2023-02-02T11:08:40;153416.0;;;18.46;42.39
33913;BME280;20200;52.084;5.224;2023-02-02T11:10:17;153662.0;;;19.45;40.78
33913;BME280;20200;52.084;5.224;2023-02-02T11:11:57;153428.0;;;18.52;42.55
33913;BME280;20200;52.084;5.224;2023-02-02T11:15:24;153476.0;;;18.7;41.82
33913;BME280;20200;52.084;5.224;2023-02-02T11:17:03;153313.0;;;18.06;42.87
33913;BME280;20200;52.084;5.224;2023-02-02T11:18:42;153477.0;;;18.7;41.7
33913;BME280;20200;52.084;5.224;2023-02-02T11:20:23;153620.0;;;19.27;40.94
33913;BME280;20200;52.084;5.224;2023-02-02T11:24:01;153445.0;;;18.59;41.79